createdAt,value
2022-11-12T00:00:34.425Z,1025.12
2022-11-12T00:01:34.466Z,1025.13
2022-11-12T00:02:34.406Z,1025.13
2022-11-12T00:03:34.396Z,1025.13
2022-11-12T00:04:34.377Z,1025.14
2022-11-12T00:05:34.374Z,1025.12
2022-11-12T00:06:34.387Z,1025.15
2022-11-12T00:07:34.467Z,1025.16
2022-11-12T00:08:34.345Z,1025.13
2022-11-12T00:09:34.331Z,1025.14
2022-11-12T00:10:34.315Z,1025.14
2022-11-12T00:11:34.326Z,1025.13
2022-11-12T00:12:34.295Z,1025.15
2022-11-12T00:13:34.295Z,1025.14
2022-11-12T00:14:34.285Z,1025.10
2022-11-12T00:15:34.378Z,1025.08
2022-11-12T00:16:34.245Z,1025.08
2022-11-12T00:17:34.467Z,1025.03
2022-11-12T00:18:34.237Z,1025.00
2022-11-12T00:19:34.238Z,1025.02
2022-11-12T00:20:34.222Z,1025.05
2022-11-12T00:21:34.187Z,1025.03
2022-11-12T00:22:34.182Z,1025.05
2022-11-12T00:23:34.196Z,1025.07
2022-11-12T00:24:34.176Z,1025.06
2022-11-12T00:25:34.215Z,1025.07
2022-11-12T00:26:34.139Z,1025.03
2022-11-12T00:27:34.128Z,1025.02
2022-11-12T00:28:37.987Z,1025.01
2022-11-12T00:29:34.117Z,1025.06
2022-11-12T00:30:34.099Z,1025.07
2022-11-12T00:31:34.078Z,1025.07
2022-11-12T00:32:34.098Z,1025.06
2022-11-12T00:33:34.168Z,1025.12
2022-11-12T00:34:34.056Z,1025.08
2022-11-12T00:35:34.040Z,1025.09
2022-11-12T00:36:34.018Z,1025.17
2022-11-12T00:37:34.020Z,1025.17
2022-11-12T00:38:34.016Z,1025.15
2022-11-12T00:39:33.998Z,1025.18
2022-11-12T00:40:33.989Z,1025.18
2022-11-12T00:41:33.980Z,1025.19
2022-11-12T00:42:33.970Z,1025.19
2022-11-12T00:43:33.960Z,1025.21
2022-11-12T00:44:33.929Z,1025.21
2022-11-12T00:45:33.930Z,1025.22
2022-11-12T00:46:33.940Z,1025.25
2022-11-12T00:47:33.901Z,1025.23
2022-11-12T00:48:33.900Z,1025.23
2022-11-12T00:49:33.889Z,1025.22
2022-11-12T00:50:33.871Z,1025.23
2022-11-12T00:51:33.860Z,1025.21
2022-11-12T00:52:33.871Z,1025.20
2022-11-12T00:53:33.855Z,1025.24
2022-11-12T00:54:33.831Z,1025.23
2022-11-12T00:55:33.818Z,1025.30
2022-11-12T00:56:35.642Z,1025.25
2022-11-12T00:57:33.822Z,1025.32
2022-11-12T00:58:33.790Z,1025.32
2022-11-12T00:59:33.777Z,1025.26
2022-11-12T01:00:33.753Z,1025.29
2022-11-12T01:01:33.835Z,1025.27
2022-11-12T01:02:40.733Z,1025.34
2022-11-12T01:03:34.891Z,1025.36
2022-11-12T01:04:33.721Z,1025.32
2022-11-12T01:05:33.722Z,1025.34
2022-11-12T01:06:33.780Z,1025.34
2022-11-12T01:07:33.711Z,1025.34
2022-11-12T01:08:33.727Z,1025.38
2022-11-12T01:09:33.679Z,1025.32
2022-11-12T01:10:33.662Z,1025.34
2022-11-12T01:11:33.685Z,1025.39
2022-11-12T01:12:33.646Z,1025.40
2022-11-12T01:13:33.642Z,1025.37
2022-11-12T01:14:33.603Z,1025.35
2022-11-12T01:15:33.605Z,1025.38
2022-11-12T01:16:33.595Z,1025.38
2022-11-12T01:17:33.584Z,1025.38
2022-11-12T01:18:33.553Z,1025.40
2022-11-12T01:19:33.563Z,1025.37
2022-11-12T01:20:33.543Z,1025.35
2022-11-12T01:21:33.531Z,1025.34
2022-11-12T01:22:33.555Z,1025.34
2022-11-12T01:23:33.525Z,1025.36
2022-11-12T01:24:33.523Z,1025.40
2022-11-12T01:25:33.494Z,1025.35
2022-11-12T01:26:33.496Z,1025.36
2022-11-12T01:27:33.489Z,1025.34
2022-11-12T01:28:33.458Z,1025.36
2022-11-12T01:29:33.458Z,1025.39
2022-11-12T01:30:33.435Z,1025.40
2022-11-12T01:31:33.439Z,1025.38
2022-11-12T01:32:33.416Z,1025.38
2022-11-12T01:33:33.425Z,1025.36
2022-11-12T01:34:33.397Z,1025.37
2022-11-12T01:35:33.385Z,1025.36
2022-11-12T01:36:33.366Z,1025.33
2022-11-12T01:37:33.397Z,1025.32
2022-11-12T01:38:33.347Z,1025.34
2022-11-12T01:39:33.336Z,1025.34
2022-11-12T01:40:33.365Z,1025.36
2022-11-12T01:41:33.327Z,1025.36
2022-11-12T01:42:33.315Z,1025.29
2022-11-12T01:43:33.319Z,1025.26
2022-11-12T01:44:33.294Z,1025.30
2022-11-12T01:45:33.277Z,1025.29
2022-11-12T01:46:33.276Z,1025.30
2022-11-12T01:47:33.257Z,1025.31
2022-11-12T01:48:33.238Z,1025.33
2022-11-12T01:49:33.230Z,1025.30
2022-11-12T01:50:33.228Z,1025.31
2022-11-12T01:51:33.203Z,1025.31
2022-11-12T01:52:33.200Z,1025.29
2022-11-12T01:53:33.178Z,1025.35
2022-11-12T01:54:33.179Z,1025.35
2022-11-12T01:55:33.147Z,1025.35
2022-11-12T01:56:33.149Z,1025.38
2022-11-12T01:57:34.958Z,1025.38
2022-11-12T01:58:33.117Z,1025.39
2022-11-12T01:59:33.109Z,1025.35
2022-11-12T02:00:33.097Z,1025.36
2022-11-12T02:01:33.182Z,1025.34
2022-11-12T02:02:33.114Z,1025.39
2022-11-12T02:03:33.078Z,1025.36
2022-11-12T02:04:33.059Z,1025.35
2022-11-12T02:05:33.048Z,1025.36
2022-11-12T02:06:33.057Z,1025.30
2022-11-12T02:07:33.044Z,1025.29
2022-11-12T02:08:33.022Z,1025.30
2022-11-12T02:09:32.998Z,1025.26
2022-11-12T02:10:32.999Z,1025.28
2022-11-12T02:11:32.979Z,1025.31
2022-11-12T02:12:32.977Z,1025.33
2022-11-12T02:13:32.950Z,1025.35
2022-11-12T02:14:32.960Z,1025.34
2022-11-12T02:15:32.929Z,1025.35
2022-11-12T02:16:32.919Z,1025.35
2022-11-12T02:17:32.920Z,1025.30
2022-11-12T02:18:32.909Z,1025.31
2022-11-12T02:19:32.901Z,1025.30
2022-11-12T02:20:32.890Z,1025.31
2022-11-12T02:21:32.864Z,1025.32
2022-11-12T02:22:32.875Z,1025.31
2022-11-12T02:23:32.850Z,1025.31
2022-11-12T02:24:32.842Z,1025.31
2022-11-12T02:25:32.824Z,1025.31
2022-11-12T02:26:32.903Z,1025.32
2022-11-12T02:27:32.842Z,1025.29
2022-11-12T02:28:32.791Z,1025.29
2022-11-12T02:29:32.781Z,1025.29
2022-11-12T02:30:32.792Z,1025.31
2022-11-12T02:31:32.766Z,1025.32
2022-11-12T02:32:32.772Z,1025.36
2022-11-12T02:33:32.732Z,1025.35
2022-11-12T02:34:32.733Z,1025.35
2022-11-12T02:35:32.728Z,1025.35
2022-11-12T02:36:32.701Z,1025.36
2022-11-12T02:37:32.701Z,1025.39
2022-11-12T02:38:32.696Z,1025.38
2022-11-12T02:39:32.670Z,1025.41
2022-11-12T02:40:32.661Z,1025.41
2022-11-12T02:41:32.652Z,1025.43
2022-11-12T02:42:32.646Z,1025.44
2022-11-12T02:43:32.622Z,1025.42
2022-11-12T02:44:32.631Z,1025.39
2022-11-12T02:45:32.618Z,1025.40
2022-11-12T02:46:32.607Z,1025.42
2022-11-12T02:47:32.892Z,1025.39
2022-11-12T02:48:32.574Z,1025.39
2022-11-12T02:49:32.597Z,1025.39
2022-11-12T02:50:32.574Z,1025.41
2022-11-12T02:51:32.547Z,1025.39
2022-11-12T02:52:40.254Z,1025.41
2022-11-12T02:53:32.514Z,1025.39
2022-11-12T02:54:32.505Z,1025.37
2022-11-12T02:55:32.494Z,1025.39
2022-11-12T02:56:32.483Z,1025.38
2022-11-12T02:57:32.475Z,1025.39
2022-11-12T02:58:32.453Z,1025.38
2022-11-12T02:59:32.444Z,1025.35
2022-11-12T03:00:32.424Z,1025.36
2022-11-12T03:01:32.529Z,1025.35
2022-11-12T03:02:32.426Z,1025.34
2022-11-12T03:03:32.392Z,1025.39
2022-11-12T03:04:32.385Z,1025.38
2022-11-12T03:05:32.382Z,1025.39
2022-11-12T03:06:32.373Z,1025.39
2022-11-12T03:07:32.345Z,1025.43
2022-11-12T03:08:32.344Z,1025.39
2022-11-12T03:09:32.325Z,1025.38
2022-11-12T03:10:32.336Z,1025.36
2022-11-12T03:11:32.319Z,1025.36
2022-11-12T03:12:32.295Z,1025.35
2022-11-12T03:13:32.295Z,1025.33
2022-11-12T03:14:32.294Z,1025.28
2022-11-12T03:15:32.254Z,1025.32
2022-11-12T03:16:32.266Z,1025.30
2022-11-12T03:17:32.236Z,1025.25
2022-11-12T03:18:32.234Z,1025.25
2022-11-12T03:19:32.215Z,1025.24
2022-11-12T03:20:32.216Z,1025.25
2022-11-12T03:21:32.207Z,1025.22
2022-11-12T03:22:32.186Z,1025.25
2022-11-12T03:23:32.170Z,1025.24
2022-11-12T03:24:32.216Z,1025.23
2022-11-12T03:25:32.225Z,1025.20
2022-11-12T03:26:35.802Z,1025.22
2022-11-12T03:27:32.125Z,1025.22
2022-11-12T03:28:32.131Z,1025.22
2022-11-12T03:29:32.121Z,1025.18
2022-11-12T03:30:32.120Z,1025.18
2022-11-12T03:31:32.109Z,1025.14
2022-11-12T03:32:32.088Z,1025.14
2022-11-12T03:33:32.058Z,1025.15
2022-11-12T03:34:32.057Z,1025.12
2022-11-12T03:35:32.044Z,1025.14
2022-11-12T03:36:32.037Z,1025.12
2022-11-12T03:37:32.038Z,1025.12
2022-11-12T03:38:32.018Z,1025.07
2022-11-12T03:39:31.998Z,1025.07
2022-11-12T03:40:32.000Z,1025.07
2022-11-12T03:41:31.989Z,1025.10
2022-11-12T03:42:31.961Z,1025.11
2022-11-12T03:43:31.948Z,1025.17
2022-11-12T03:44:31.943Z,1025.12
2022-11-12T03:45:31.977Z,1025.17
2022-11-12T03:46:31.928Z,1025.15
2022-11-12T03:47:31.918Z,1025.15
2022-11-12T03:48:31.900Z,1025.08
2022-11-12T03:49:31.887Z,1025.09
2022-11-12T03:50:31.871Z,1025.11
2022-11-12T03:51:31.870Z,1025.12
2022-11-12T03:52:31.851Z,1025.12
2022-11-12T03:53:31.850Z,1025.08
2022-11-12T03:54:31.838Z,1025.05
2022-11-12T03:55:31.826Z,1025.07
2022-11-12T03:56:31.836Z,1025.03
2022-11-12T03:57:31.803Z,1025.02
2022-11-12T03:58:31.925Z,1024.98
2022-11-12T03:59:31.770Z,1024.95
2022-11-12T04:00:31.766Z,1024.99
2022-11-12T04:01:31.856Z,1024.99
2022-11-12T04:02:31.755Z,1024.97
2022-11-12T04:03:31.731Z,1025.00
2022-11-12T04:04:31.729Z,1024.96
2022-11-12T04:05:31.710Z,1025.00
2022-11-12T04:06:31.720Z,1024.99
2022-11-12T04:07:31.688Z,1025.01
2022-11-12T04:08:31.681Z,1025.00
2022-11-12T04:09:31.659Z,1025.02
2022-11-12T04:10:31.660Z,1024.98
2022-11-12T04:11:31.671Z,1024.98
2022-11-12T04:12:31.636Z,1024.97
2022-11-12T04:13:31.613Z,1024.98
2022-11-12T04:14:31.613Z,1025.01
2022-11-12T04:15:31.611Z,1024.97
2022-11-12T04:16:31.623Z,1024.97
2022-11-12T04:17:31.598Z,1025.01
2022-11-12T04:18:31.584Z,1024.96
2022-11-12T04:19:31.577Z,1024.95
2022-11-12T04:20:31.562Z,1024.95
2022-11-12T04:21:31.550Z,1024.95
2022-11-12T04:22:31.543Z,1024.93
2022-11-12T04:23:31.516Z,1024.91
2022-11-12T04:24:31.504Z,1024.98
2022-11-12T04:25:31.493Z,1024.91
2022-11-12T04:26:31.496Z,1024.93
2022-11-12T04:27:31.483Z,1024.96
2022-11-12T04:28:31.466Z,1024.96
2022-11-12T04:29:36.369Z,1024.97
2022-11-12T04:30:32.434Z,1024.99
2022-11-12T04:31:31.436Z,1025.00
2022-11-12T04:32:31.436Z,1024.93
2022-11-12T04:33:31.414Z,1024.93
2022-11-12T04:34:31.458Z,1024.91
2022-11-12T04:35:31.381Z,1024.93
2022-11-12T04:36:31.374Z,1024.97
2022-11-12T04:37:31.356Z,1024.94
2022-11-12T04:38:31.365Z,1024.92
2022-11-12T04:39:31.335Z,1024.95
2022-11-12T04:40:31.332Z,1024.88
2022-11-12T04:41:31.324Z,1024.87
2022-11-12T04:42:31.296Z,1024.89
2022-11-12T04:43:31.284Z,1024.92
2022-11-12T04:44:31.286Z,1024.91
2022-11-12T04:45:31.269Z,1024.90
2022-11-12T04:46:31.264Z,1024.88
2022-11-12T04:47:31.250Z,1024.91
2022-11-12T04:48:31.236Z,1024.89
2022-11-12T04:49:31.224Z,1024.88
2022-11-12T04:50:31.219Z,1024.91
2022-11-12T04:51:31.205Z,1024.89
2022-11-12T04:52:31.206Z,1024.84
2022-11-12T04:53:31.176Z,1024.85
2022-11-12T04:54:31.169Z,1024.85
2022-11-12T04:55:31.173Z,1024.77
2022-11-12T04:56:31.182Z,1024.79
2022-11-12T04:57:31.127Z,1024.80
2022-11-12T04:58:31.138Z,1024.73
2022-11-12T04:59:31.107Z,1024.76
2022-11-12T05:00:31.135Z,1024.75
2022-11-12T05:01:31.264Z,1024.76
2022-11-12T05:02:31.080Z,1024.76
2022-11-12T05:03:31.066Z,1024.77
2022-11-12T05:04:31.076Z,1024.78
2022-11-12T05:05:33.770Z,1024.80
2022-11-12T05:06:31.054Z,1024.77
2022-11-12T05:07:31.032Z,1024.77
2022-11-12T05:08:31.019Z,1024.74
2022-11-12T05:09:31.016Z,1024.71
2022-11-12T05:10:31.008Z,1024.73
2022-11-12T05:11:30.988Z,1024.75
2022-11-12T05:12:30.978Z,1024.77
2022-11-12T05:13:30.961Z,1024.78
2022-11-12T05:14:30.949Z,1024.78
2022-11-12T05:15:30.931Z,1024.73
2022-11-12T05:16:30.959Z,1024.72
2022-11-12T05:17:30.920Z,1024.74
2022-11-12T05:18:30.899Z,1024.76
2022-11-12T05:19:30.897Z,1024.74
2022-11-12T05:20:30.887Z,1024.70
2022-11-12T05:21:30.880Z,1024.71
2022-11-12T05:22:43.394Z,1024.70
2022-11-12T05:23:31.844Z,1024.66
2022-11-12T05:24:41.403Z,1024.66
2022-11-12T05:25:31.834Z,1024.61
2022-11-12T05:26:30.831Z,1024.60
2022-11-12T05:27:30.797Z,1024.63
2022-11-12T05:28:30.790Z,1024.61
2022-11-12T05:29:30.795Z,1024.59
2022-11-12T05:30:30.828Z,1024.57
2022-11-12T05:31:30.779Z,1024.56
2022-11-12T05:32:30.760Z,1024.52
2022-11-12T05:33:30.731Z,1024.50
2022-11-12T05:34:30.733Z,1024.53
2022-11-12T05:35:30.710Z,1024.53
2022-11-12T05:36:30.709Z,1024.54
2022-11-12T05:37:30.690Z,1024.56
2022-11-12T05:38:30.861Z,1024.59
2022-11-12T05:39:30.667Z,1024.58
2022-11-12T05:40:30.880Z,1024.58
2022-11-12T05:41:45.225Z,1024.58
2022-11-12T05:42:31.632Z,1024.57
2022-11-12T05:43:30.624Z,1024.59
2022-11-12T05:44:30.624Z,1024.60
2022-11-12T05:45:30.590Z,1024.61
2022-11-12T05:46:30.612Z,1024.60
2022-11-12T05:47:30.581Z,1024.60
2022-11-12T05:48:31.429Z,1024.59
2022-11-12T05:49:30.551Z,1024.59
2022-11-12T05:50:39.835Z,1024.61
2022-11-12T05:51:31.554Z,1024.57
2022-11-12T05:52:30.559Z,1024.56
2022-11-12T05:53:30.512Z,1024.61
2022-11-12T05:54:30.500Z,1024.61
2022-11-12T05:55:34.443Z,1024.62
2022-11-12T05:56:31.501Z,1024.58
2022-11-12T05:57:30.529Z,1024.60
2022-11-12T05:58:30.473Z,1024.61
2022-11-12T05:59:30.479Z,1024.59
2022-11-12T06:00:30.423Z,1024.58
2022-11-12T06:01:30.634Z,1024.57
2022-11-12T06:02:30.487Z,1024.61
2022-11-12T06:03:30.417Z,1024.57
2022-11-12T06:04:30.401Z,1024.58
2022-11-12T06:05:30.558Z,1024.59
2022-11-12T06:06:30.381Z,1024.58
2022-11-12T06:07:30.356Z,1024.57
2022-11-12T06:08:30.342Z,1024.61
2022-11-12T06:09:30.324Z,1024.64
2022-11-12T06:10:30.323Z,1024.61
2022-11-12T06:11:30.325Z,1024.59
2022-11-12T06:12:30.302Z,1024.63
2022-11-12T06:13:30.295Z,1024.60
2022-11-12T06:14:30.294Z,1024.69
2022-11-12T06:15:32.844Z,1024.63
2022-11-12T06:16:31.288Z,1024.66
2022-11-12T06:17:30.247Z,1024.65
2022-11-12T06:18:30.233Z,1024.69
2022-11-12T06:19:30.243Z,1024.71
2022-11-12T06:20:30.220Z,1024.70
2022-11-12T06:21:30.221Z,1024.72
2022-11-12T06:22:30.198Z,1024.71
2022-11-12T06:23:30.173Z,1024.74
2022-11-12T06:24:35.140Z,1024.78
2022-11-12T06:25:31.155Z,1024.77
2022-11-12T06:26:30.175Z,1024.77
2022-11-12T06:27:30.155Z,1024.81
2022-11-12T06:28:30.382Z,1024.80
2022-11-12T06:29:30.129Z,1024.79
2022-11-12T06:30:30.103Z,1024.82
2022-11-12T06:31:30.095Z,1024.76
2022-11-12T06:32:30.084Z,1024.79
2022-11-12T06:33:30.065Z,1024.85
2022-11-12T06:34:30.072Z,1024.84
2022-11-12T06:35:30.045Z,1024.85
2022-11-12T06:36:30.043Z,1024.88
2022-11-12T06:37:30.047Z,1024.87
2022-11-12T06:38:30.087Z,1024.85
2022-11-12T06:39:29.994Z,1024.87
2022-11-12T06:40:30.012Z,1024.88
2022-11-12T06:41:30.031Z,1024.92
2022-11-12T06:42:29.974Z,1024.90
2022-11-12T06:43:29.964Z,1024.93
2022-11-12T06:44:29.957Z,1024.92
2022-11-12T06:45:29.933Z,1024.89
2022-11-12T06:46:29.946Z,1024.92
2022-11-12T06:47:29.952Z,1024.91
2022-11-12T06:48:29.908Z,1024.93
2022-11-12T06:49:29.887Z,1024.95
2022-11-12T06:50:29.882Z,1024.95
2022-11-12T06:51:29.886Z,1024.94
2022-11-12T06:52:29.860Z,1024.90
2022-11-12T06:53:29.847Z,1024.89
2022-11-12T06:54:29.842Z,1024.88
2022-11-12T06:55:29.836Z,1024.92
2022-11-12T06:56:29.968Z,1024.91
2022-11-12T06:57:29.800Z,1024.93
2022-11-12T06:58:29.787Z,1024.92
2022-11-12T06:59:29.781Z,1024.95
2022-11-12T07:00:29.767Z,1024.95
2022-11-12T07:01:29.844Z,1024.97
2022-11-12T07:02:29.749Z,1024.99
2022-11-12T07:03:29.728Z,1024.96
2022-11-12T07:04:29.731Z,1024.94
2022-11-12T07:05:29.709Z,1024.97
2022-11-12T07:06:29.708Z,1024.98
2022-11-12T07:07:29.870Z,1025.00
2022-11-12T07:08:29.960Z,1024.99
2022-11-12T07:09:29.688Z,1024.99
2022-11-12T07:10:29.716Z,1024.99
2022-11-12T07:11:29.711Z,1025.00
2022-11-12T07:12:29.630Z,1025.03
2022-11-12T07:13:29.619Z,1025.03
2022-11-12T07:14:29.642Z,1025.00
2022-11-12T07:15:29.614Z,1024.99
2022-11-12T07:16:29.610Z,1024.97
2022-11-12T07:17:29.600Z,1024.98
2022-11-12T07:18:29.808Z,1024.98
2022-11-12T07:19:29.562Z,1024.99
2022-11-12T07:20:29.594Z,1025.02
2022-11-12T07:21:29.541Z,1025.01
2022-11-12T07:22:29.535Z,1025.02
2022-11-12T07:23:29.524Z,1025.06
2022-11-12T07:24:29.500Z,1025.05
2022-11-12T07:25:29.499Z,1025.12
2022-11-12T07:26:29.501Z,1025.13
2022-11-12T07:27:29.460Z,1025.18
2022-11-12T07:28:29.785Z,1025.17
2022-11-12T07:29:46.192Z,1025.12
2022-11-12T07:30:30.438Z,1025.17
2022-11-12T07:31:29.621Z,1025.10
2022-11-12T07:32:29.425Z,1025.11
2022-11-12T07:33:29.402Z,1025.13
2022-11-12T07:34:29.403Z,1025.08
2022-11-12T07:35:29.385Z,1025.09
2022-11-12T07:36:29.381Z,1025.15
2022-11-12T07:37:29.364Z,1025.12
2022-11-12T07:38:29.584Z,1025.14
2022-11-12T07:39:29.338Z,1025.10
2022-11-12T07:40:29.343Z,1025.12
2022-11-12T07:41:29.341Z,1025.07
2022-11-12T07:42:29.295Z,1025.07
2022-11-12T07:43:29.294Z,1025.07
2022-11-12T07:44:29.288Z,1025.03
2022-11-12T07:45:29.262Z,1025.04
2022-11-12T07:46:29.286Z,1025.01
2022-11-12T07:47:29.253Z,1025.06
2022-11-12T07:48:29.498Z,1025.06
2022-11-12T07:49:29.225Z,1025.07
2022-11-12T07:50:29.213Z,1025.04
2022-11-12T07:51:29.232Z,1025.02
2022-11-12T07:52:29.245Z,1025.05
2022-11-12T07:53:29.181Z,1025.04
2022-11-12T07:54:29.169Z,1025.07
2022-11-12T07:55:29.157Z,1025.14
2022-11-12T07:56:29.166Z,1025.12
2022-11-12T07:57:29.135Z,1025.16
2022-11-12T07:58:29.404Z,1025.11
2022-11-12T07:59:29.112Z,1025.14
2022-11-12T08:00:29.096Z,1025.13
2022-11-12T08:01:29.186Z,1025.16
2022-11-12T08:02:29.091Z,1025.13
2022-11-12T08:03:29.066Z,1025.16
2022-11-12T08:04:29.065Z,1025.20
2022-11-12T08:05:29.119Z,1025.16
2022-11-12T08:06:29.054Z,1025.17
2022-11-12T08:07:29.212Z,1025.18
2022-11-12T08:08:29.464Z,1025.15
2022-11-12T08:09:28.999Z,1025.16
2022-11-12T08:10:29.005Z,1025.18
2022-11-12T08:11:29.006Z,1025.17
2022-11-12T08:12:28.978Z,1025.19
2022-11-12T08:13:28.967Z,1025.15
2022-11-12T08:14:28.965Z,1025.17
2022-11-12T08:15:28.947Z,1025.13
2022-11-12T08:16:28.937Z,1025.12
2022-11-12T08:17:28.917Z,1025.11
2022-11-12T08:18:29.315Z,1025.11
2022-11-12T08:19:28.909Z,1025.07
2022-11-12T08:20:28.887Z,1025.08
2022-11-12T08:21:28.924Z,1025.09
2022-11-12T08:22:28.869Z,1025.18
2022-11-12T08:23:28.857Z,1025.13
2022-11-12T08:24:28.867Z,1025.13
2022-11-12T08:25:28.834Z,1025.15
2022-11-12T08:26:28.839Z,1025.15
2022-11-12T08:27:28.813Z,1025.11
2022-11-12T08:28:29.110Z,1025.15
2022-11-12T08:29:28.828Z,1025.15
2022-11-12T08:30:28.782Z,1025.13
2022-11-12T08:31:28.770Z,1025.11
2022-11-12T08:32:28.758Z,1025.07
2022-11-12T08:33:28.750Z,1025.11
2022-11-12T08:34:28.732Z,1025.12
2022-11-12T08:35:28.728Z,1025.12
2022-11-12T08:36:28.711Z,1025.12
2022-11-12T08:37:28.709Z,1025.09
2022-11-12T08:38:28.980Z,1025.11
2022-11-12T08:39:28.681Z,1025.15
2022-11-12T08:40:28.681Z,1025.11
2022-11-12T08:41:28.670Z,1025.14
2022-11-12T08:42:28.642Z,1025.16
2022-11-12T08:43:28.629Z,1025.11
2022-11-12T08:44:28.630Z,1025.17
2022-11-12T08:45:28.620Z,1025.15
2022-11-12T08:46:28.611Z,1025.18
2022-11-12T08:47:28.584Z,1025.18
2022-11-12T08:48:28.836Z,1025.22
2022-11-12T08:49:28.566Z,1025.29
2022-11-12T08:50:28.572Z,1025.33
2022-11-12T08:51:28.544Z,1025.31
2022-11-12T08:52:28.551Z,1025.27
2022-11-12T08:53:28.554Z,1025.29
2022-11-12T08:54:28.593Z,1025.20
2022-11-12T08:55:28.526Z,1025.20
2022-11-12T08:56:28.506Z,1025.24
2022-11-12T08:57:28.472Z,1025.23
2022-11-12T08:58:28.935Z,1025.28
2022-11-12T08:59:28.455Z,1025.26
2022-11-12T09:00:28.462Z,1025.32
2022-11-12T09:01:28.489Z,1025.34
2022-11-12T09:02:28.444Z,1025.31
2022-11-12T09:03:28.404Z,1025.31
2022-11-12T09:04:28.415Z,1025.31
2022-11-12T09:05:28.415Z,1025.30
2022-11-12T09:06:28.384Z,1025.26
2022-11-12T09:07:48.952Z,1025.24
2022-11-12T09:08:29.592Z,1025.24
2022-11-12T09:09:28.996Z,1025.25
2022-11-12T09:10:28.354Z,1025.25
2022-11-12T09:11:28.393Z,1025.26
2022-11-12T09:12:28.429Z,1025.24
2022-11-12T09:13:28.372Z,1025.28
2022-11-12T09:14:28.307Z,1025.28
2022-11-12T09:15:37.542Z,1025.30
2022-11-12T09:16:29.276Z,1025.29
2022-11-12T09:17:28.266Z,1025.33
2022-11-12T09:18:28.516Z,1025.31
2022-11-12T09:19:28.247Z,1025.26
2022-11-12T09:20:28.258Z,1025.24
2022-11-12T09:21:28.218Z,1025.28
2022-11-12T09:22:28.227Z,1025.26
2022-11-12T09:23:28.442Z,1025.26
2022-11-12T09:24:28.285Z,1025.25
2022-11-12T09:25:28.235Z,1025.21
2022-11-12T09:26:28.182Z,1025.26
2022-11-12T09:27:28.191Z,1025.25
2022-11-12T09:28:28.457Z,1025.27
2022-11-12T09:29:28.440Z,1025.23
2022-11-12T09:30:28.135Z,1025.24
2022-11-12T09:31:28.368Z,1025.23
2022-11-12T09:32:28.284Z,1025.24
2022-11-12T09:33:28.180Z,1025.23
2022-11-12T09:34:28.080Z,1025.27
2022-11-12T09:35:28.091Z,1025.23
2022-11-12T09:36:28.048Z,1025.22
2022-11-12T09:37:28.064Z,1025.29
2022-11-12T09:38:28.587Z,1025.29
2022-11-12T09:39:28.085Z,1025.29
2022-11-12T09:40:28.021Z,1025.29
2022-11-12T09:41:28.118Z,1025.35
2022-11-12T09:42:27.979Z,1025.31
2022-11-12T09:43:27.984Z,1025.28
2022-11-12T09:44:31.692Z,1025.26
2022-11-12T09:45:28.951Z,1025.28
2022-11-12T09:46:28.701Z,1025.28
2022-11-12T09:47:27.946Z,1025.30
2022-11-12T09:48:28.226Z,1025.28
2022-11-12T09:49:28.872Z,1025.24
2022-11-12T09:50:27.907Z,1025.16
2022-11-12T09:51:27.892Z,1025.17
2022-11-12T09:52:27.923Z,1025.19
2022-11-12T09:53:27.874Z,1025.18
2022-11-12T09:54:27.842Z,1025.22
2022-11-12T09:55:27.854Z,1025.17
2022-11-12T09:56:27.829Z,1025.17
2022-11-12T09:57:28.025Z,1025.16
2022-11-12T09:58:28.092Z,1025.18
2022-11-12T09:59:27.803Z,1025.09
2022-11-12T10:00:27.794Z,1025.14
2022-11-12T10:01:27.813Z,1025.15
2022-11-12T10:02:27.765Z,1025.13
2022-11-12T10:03:27.774Z,1025.13
2022-11-12T10:04:27.737Z,1025.09
2022-11-12T10:05:27.906Z,1025.05
2022-11-12T10:06:27.727Z,1025.05
2022-11-12T10:07:27.755Z,1025.02
2022-11-12T10:08:27.961Z,1024.99
2022-11-12T10:09:27.715Z,1025.04
2022-11-12T10:10:27.696Z,1025.05
2022-11-12T10:11:27.701Z,1024.99
2022-11-12T10:12:27.656Z,1025.05
2022-11-12T10:13:28.607Z,1025.01
2022-11-12T10:14:27.629Z,1024.97
2022-11-12T10:15:28.327Z,1024.94
2022-11-12T10:16:27.619Z,1024.95
2022-11-12T10:17:27.610Z,1024.96
2022-11-12T10:18:28.027Z,1024.90
2022-11-12T10:19:27.589Z,1024.96
2022-11-12T10:20:27.589Z,1024.92
2022-11-12T10:21:27.561Z,1024.90
2022-11-12T10:22:27.611Z,1024.83
2022-11-12T10:23:27.524Z,1024.92
2022-11-12T10:24:27.530Z,1024.89
2022-11-12T10:25:27.514Z,1024.88
2022-11-12T10:26:27.503Z,1024.83
2022-11-12T10:27:27.480Z,1024.83
2022-11-12T10:28:27.997Z,1024.85
2022-11-12T10:29:27.482Z,1024.80
2022-11-12T10:30:27.461Z,1024.78
2022-11-12T10:31:27.451Z,1024.77
2022-11-12T10:32:27.468Z,1024.76
2022-11-12T10:33:27.413Z,1024.74
2022-11-12T10:34:27.416Z,1024.71
2022-11-12T10:35:27.415Z,1024.79
2022-11-12T10:36:27.404Z,1024.73
2022-11-12T10:37:27.415Z,1024.78
2022-11-12T10:38:27.803Z,1024.74
2022-11-12T10:39:27.366Z,1024.69
2022-11-12T10:40:27.375Z,1024.68
2022-11-12T10:41:27.354Z,1024.71
2022-11-12T10:42:27.346Z,1024.69
2022-11-12T10:43:27.328Z,1024.68
2022-11-12T10:44:27.308Z,1024.64
2022-11-12T10:45:27.415Z,1024.68
2022-11-12T10:46:27.278Z,1024.60
2022-11-12T10:47:27.997Z,1024.65
2022-11-12T10:48:27.855Z,1024.64
2022-11-12T10:49:27.290Z,1024.60
2022-11-12T10:50:27.260Z,1024.63
2022-11-12T10:51:27.218Z,1024.55
2022-11-12T10:52:27.221Z,1024.57
2022-11-12T10:53:27.191Z,1024.59
2022-11-12T10:54:27.191Z,1024.58
2022-11-12T10:55:27.200Z,1024.54
2022-11-12T10:56:27.177Z,1024.56
2022-11-12T10:57:27.152Z,1024.53
2022-11-12T10:58:27.444Z,1024.56
2022-11-12T10:59:27.134Z,1024.56
2022-11-12T11:00:27.125Z,1024.55
2022-11-12T11:01:28.902Z,1024.54
2022-11-12T11:02:28.187Z,1024.54
2022-11-12T11:03:27.086Z,1024.45
2022-11-12T11:04:27.106Z,1024.48
2022-11-12T11:05:27.086Z,1024.53
2022-11-12T11:06:27.066Z,1024.46
2022-11-12T11:07:27.048Z,1024.50
2022-11-12T11:08:30.387Z,1024.48
2022-11-12T11:09:28.031Z,1024.42
2022-11-12T11:10:27.049Z,1024.41
2022-11-12T11:11:27.019Z,1024.43
2022-11-12T11:12:27.001Z,1024.39
2022-11-12T11:13:26.972Z,1024.44
2022-11-12T11:14:26.988Z,1024.47
2022-11-12T11:15:26.961Z,1024.43
2022-11-12T11:16:26.981Z,1024.43
2022-11-12T11:17:26.930Z,1024.43
2022-11-12T11:18:27.172Z,1024.43
2022-11-12T11:19:26.909Z,1024.44
2022-11-12T11:20:26.911Z,1024.40
2022-11-12T11:21:26.903Z,1024.39
2022-11-12T11:22:26.893Z,1024.32
2022-11-12T11:23:26.874Z,1024.37
2022-11-12T11:24:26.924Z,1024.30
2022-11-12T11:25:26.853Z,1024.29
2022-11-12T11:26:26.841Z,1024.30
2022-11-12T11:27:26.826Z,1024.30
2022-11-12T11:28:27.159Z,1024.31
2022-11-12T11:29:26.807Z,1024.32
2022-11-12T11:30:26.806Z,1024.34
2022-11-12T11:31:26.806Z,1024.33
2022-11-12T11:32:26.767Z,1024.30
2022-11-12T11:33:26.766Z,1024.27
2022-11-12T11:34:26.765Z,1024.24
2022-11-12T11:35:26.744Z,1024.26
2022-11-12T11:36:26.726Z,1024.23
2022-11-12T11:37:26.733Z,1024.20
2022-11-12T11:38:27.023Z,1024.17
2022-11-12T11:39:26.689Z,1024.12
2022-11-12T11:40:26.702Z,1024.10
2022-11-12T11:41:26.683Z,1024.05
2022-11-12T11:42:26.673Z,1023.99
2022-11-12T11:43:26.645Z,1023.96
2022-11-12T11:44:26.753Z,1023.95
2022-11-12T11:45:26.629Z,1023.94
2022-11-12T11:46:26.622Z,1023.96
2022-11-12T11:47:34.286Z,1023.90
2022-11-12T11:48:27.815Z,1023.93
2022-11-12T11:49:26.596Z,1023.94
2022-11-12T11:50:26.583Z,1023.91
2022-11-12T11:51:26.572Z,1023.94
2022-11-12T11:52:26.553Z,1023.93
2022-11-12T11:53:26.545Z,1023.90
2022-11-12T11:54:26.525Z,1023.92
2022-11-12T11:55:26.543Z,1023.93
2022-11-12T11:56:26.507Z,1023.88
2022-11-12T11:57:26.506Z,1023.92
2022-11-12T11:58:26.942Z,1023.86
2022-11-12T11:59:26.478Z,1023.89
2022-11-12T12:00:26.468Z,1023.91
2022-11-12T12:01:26.457Z,1023.91
2022-11-12T12:02:26.447Z,1023.94
2022-11-12T12:03:31.740Z,1023.99
2022-11-12T12:04:27.417Z,1023.95
2022-11-12T12:05:26.432Z,1024.04